createdAt,value
2019-04-29T00:00:23.199Z,2086
2019-04-29T00:01:25.373Z,2160
2019-04-29T00:02:27.621Z,2180
2019-04-29T00:03:29.941Z,2229
2019-04-29T00:04:32.196Z,2153
2019-04-29T00:05:34.470Z,2116
2019-04-29T00:06:36.802Z,2067
2019-04-29T00:07:39.080Z,2038
2019-04-29T00:08:42.586Z,2044
2019-04-29T00:09:43.542Z,2005
2019-04-29T00:10:45.846Z,1973
2019-04-29T00:11:48.102Z,2033
2019-04-29T00:12:51.234Z,2017
2019-04-29T00:13:52.635Z,1962
2019-04-29T00:14:54.934Z,1998
2019-04-29T00:15:57.309Z,1991
2019-04-29T00:16:59.464Z,1971
2019-04-29T00:18:01.749Z,1952
2019-04-29T00:19:04.150Z,2035
2019-04-29T00:20:06.423Z,1897
2019-04-29T00:21:08.645Z,1915
2019-04-29T00:22:10.945Z,1814
2019-04-29T00:23:13.231Z,1842
2019-04-29T00:24:15.521Z,1816
2019-04-29T00:25:17.798Z,1823
2019-04-29T00:26:20.032Z,1849
2019-04-29T00:27:22.379Z,1816
2019-04-29T00:28:24.568Z,1796
2019-04-29T00:29:26.846Z,1724
2019-04-29T00:30:29.116Z,1733
2019-04-29T00:31:31.389Z,1754
2019-04-29T00:32:33.656Z,1782
2019-04-29T00:33:36.459Z,1775
2019-04-29T00:34:38.222Z,1782
2019-04-29T00:35:40.478Z,1747
2019-04-29T00:36:42.757Z,1729
2019-04-29T00:37:45.049Z,1754
2019-04-29T00:38:49.263Z,1775
2019-04-29T00:39:49.575Z,1541
2019-04-29T00:40:51.926Z,1687
2019-04-29T00:41:54.182Z,1600
2019-04-29T00:42:56.395Z,2028
2019-04-29T00:43:58.683Z,1498
2019-04-29T00:45:00.991Z,1701
2019-04-29T00:46:03.502Z,1611
2019-04-29T00:47:05.541Z,1740
2019-04-29T00:48:07.795Z,1752
2019-04-29T00:49:10.050Z,1694
2019-04-29T00:50:12.439Z,1600
2019-04-29T00:51:14.682Z,1927
2019-04-29T00:52:16.947Z,1724
2019-04-29T00:53:19.284Z,1743
2019-04-29T00:54:21.528Z,1699
2019-04-29T00:55:23.922Z,1611
2019-04-29T00:56:26.402Z,1667
2019-04-29T00:57:28.322Z,1690
2019-04-29T00:58:30.952Z,1731
2019-04-29T00:59:32.862Z,1745
2019-04-29T01:00:35.162Z,1747
2019-04-29T01:01:37.423Z,1729
2019-04-29T01:02:39.739Z,1621
2019-04-29T01:03:41.961Z,1798
2019-04-29T01:04:44.234Z,1634
2019-04-29T01:05:46.521Z,1722
2019-04-29T01:06:48.867Z,1784
2019-04-29T01:07:51.064Z,1849
2019-04-29T01:08:53.352Z,1720
2019-04-29T01:09:55.818Z,1546
2019-04-29T01:10:57.884Z,1646
2019-04-29T01:12:00.145Z,1588
2019-04-29T01:13:02.425Z,1534
2019-04-29T01:14:09.349Z,1627
2019-04-29T01:15:07.135Z,1505
2019-04-29T01:16:09.249Z,1653
2019-04-29T01:17:11.605Z,1524
2019-04-29T01:18:13.881Z,1534
2019-04-29T01:19:16.068Z,1550
2019-04-29T01:20:18.397Z,1531
2019-04-29T01:21:20.786Z,1591
2019-04-29T01:22:23.023Z,1553
2019-04-29T01:23:25.265Z,1518
2019-04-29T01:24:29.925Z,1525
2019-04-29T01:25:29.856Z,1539
2019-04-29T01:26:32.087Z,3784
2019-04-29T01:28:36.672Z,2904
2019-04-29T01:29:38.927Z,2742
2019-04-29T01:30:41.189Z,2342
2019-04-29T01:31:43.531Z,2729
2019-04-29T01:32:45.779Z,2478
2019-04-29T01:33:48.094Z,2556
2019-04-29T01:34:50.387Z,2388
2019-04-29T01:35:52.543Z,2666
2019-04-29T01:36:54.807Z,2551
2019-04-29T01:37:57.090Z,2441
2019-04-29T01:38:59.454Z,2724
2019-04-29T01:40:01.638Z,2040
2019-04-29T01:41:03.940Z,2201
2019-04-29T01:42:06.198Z,2167
2019-04-29T01:43:08.478Z,2413
2019-04-29T01:44:10.734Z,2167
2019-04-29T01:45:13.155Z,2148
2019-04-29T01:46:19.511Z,2402
2019-04-29T01:47:17.644Z,2222
2019-04-29T01:48:19.834Z,2296
2019-04-29T01:49:22.234Z,2194
2019-04-29T01:50:24.382Z,2144
2019-04-29T01:51:26.650Z,2279
2019-04-29T01:52:28.965Z,1989
2019-04-29T01:53:31.211Z,2097
2019-04-29T01:54:33.591Z,2148
2019-04-29T01:55:36.173Z,2118
2019-04-29T01:56:38.079Z,2192
2019-04-29T01:57:40.292Z,1826
2019-04-29T01:58:42.567Z,1955
2019-04-29T01:59:44.945Z,1828
2019-04-29T02:00:47.119Z,2250
2019-04-29T02:01:50.557Z,1773
2019-04-29T02:02:52.049Z,1936
2019-04-29T02:03:54.089Z,1784
2019-04-29T02:04:56.210Z,1927
2019-04-29T02:05:58.579Z,1555
2019-04-29T02:08:05.086Z,1796
2019-04-29T02:09:05.351Z,1846
2019-04-29T02:10:07.574Z,1766
2019-04-29T02:11:09.862Z,1941
2019-04-29T02:12:12.122Z,1752
2019-04-29T02:13:14.666Z,1775
2019-04-29T02:14:16.672Z,1879
2019-04-29T02:15:19.115Z,1805
2019-04-29T02:16:21.674Z,1805
2019-04-29T02:17:23.494Z,1683
2019-04-29T02:18:26.007Z,1692
2019-04-29T02:19:28.055Z,1600
2019-04-29T02:20:30.350Z,1542
2019-04-29T02:21:32.665Z,1729
2019-04-29T02:22:34.894Z,1539
2019-04-29T02:23:37.160Z,1554
2019-04-29T02:24:39.491Z,1525
2019-04-29T02:25:42.196Z,1588
2019-04-29T02:26:43.990Z,1915
2019-04-29T02:27:46.255Z,1680
2019-04-29T02:28:48.527Z,1623
2019-04-29T02:29:51.090Z,1724
2019-04-29T02:30:53.184Z,1809
2019-04-29T02:31:55.427Z,1655
2019-04-29T02:32:57.623Z,1664
2019-04-29T02:33:59.915Z,1625
2019-04-29T02:35:02.185Z,1541
2019-04-29T02:36:04.479Z,1676
2019-04-29T02:37:06.732Z,1952
2019-04-29T02:38:08.997Z,1745
2019-04-29T02:39:11.271Z,1786
2019-04-29T02:40:13.557Z,2233
2019-04-29T02:41:16.346Z,2146
2019-04-29T02:42:18.088Z,1876
2019-04-29T02:43:20.458Z,1786
2019-04-29T02:44:22.763Z,1763
2019-04-29T02:45:24.932Z,1657
2019-04-29T02:46:27.190Z,1743
2019-04-29T02:47:29.481Z,1657
2019-04-29T02:48:31.751Z,1694
2019-04-29T02:49:34.106Z,1761
2019-04-29T02:50:36.444Z,1616
2019-04-29T02:51:38.598Z,1860
2019-04-29T02:52:40.899Z,1708
2019-04-29T02:53:43.644Z,1550
2019-04-29T02:54:45.419Z,1588
2019-04-29T02:55:47.741Z,1692
2019-04-29T02:56:49.937Z,1611
2019-04-29T02:57:52.235Z,1593
2019-04-29T02:58:54.475Z,1574
2019-04-29T02:59:56.885Z,1588
2019-04-29T03:00:59.034Z,1597
2019-04-29T03:02:01.308Z,1680
2019-04-29T03:03:03.574Z,1581
2019-04-29T03:04:05.853Z,1593
2019-04-29T03:05:08.131Z,1646
2019-04-29T03:07:15.174Z,1501
2019-04-29T03:08:14.953Z,1466
2019-04-29T03:09:17.237Z,1535
2019-04-29T03:10:19.493Z,1484
2019-04-29T03:11:21.873Z,1524
2019-04-29T03:12:24.023Z,1496
2019-04-29T03:13:26.305Z,1486
2019-04-29T03:14:28.604Z,1516
2019-04-29T03:15:30.993Z,1472
2019-04-29T03:16:33.177Z,1504
2019-04-29T03:17:35.463Z,1497
2019-04-29T03:18:37.708Z,1493
2019-04-29T03:19:40.009Z,1525
2019-04-29T03:20:43.012Z,1489
2019-04-29T03:21:44.516Z,1505
2019-04-29T03:22:46.799Z,1482
2019-04-29T03:23:49.083Z,1523
2019-04-29T03:24:51.559Z,1512
2019-04-29T03:25:56.629Z,1503
2019-04-29T03:26:55.980Z,1490
2019-04-29T03:27:58.222Z,1502
2019-04-29T03:29:00.459Z,1489
2019-04-29T03:30:02.743Z,1516
2019-04-29T03:31:05.051Z,1473
2019-04-29T03:32:07.360Z,1505
2019-04-29T03:33:09.612Z,1427
2019-04-29T03:34:11.829Z,1450
2019-04-29T03:35:14.115Z,1488
2019-04-29T03:36:16.370Z,1451
2019-04-29T03:37:18.702Z,1489
2019-04-29T03:38:20.909Z,1480
2019-04-29T03:39:23.175Z,1506
2019-04-29T03:40:25.465Z,1484
2019-04-29T03:41:27.765Z,1481
2019-04-29T03:42:30.109Z,1512
2019-04-29T03:43:32.287Z,1525
2019-04-29T03:44:34.548Z,1523
2019-04-29T03:45:36.829Z,1490
2019-04-29T03:46:39.108Z,1496
2019-04-29T03:47:41.436Z,1470
2019-04-29T03:48:43.679Z,1462
2019-04-29T03:49:45.934Z,1482
2019-04-29T03:50:48.206Z,1450
2019-04-29T03:51:50.647Z,1496
2019-04-29T03:52:52.830Z,1470
2019-04-29T03:53:55.046Z,1472
2019-04-29T03:54:57.313Z,1474
2019-04-29T03:55:59.596Z,1459
2019-04-29T03:57:01.848Z,1473
2019-04-29T03:58:04.116Z,1478
2019-04-29T03:59:06.424Z,1791
2019-04-29T04:00:08.862Z,1470
2019-04-29T04:01:10.957Z,1480
2019-04-29T04:02:13.197Z,1484
2019-04-29T04:03:15.486Z,1488
2019-04-29T04:04:23.532Z,1482
2019-04-29T04:05:20.065Z,1480
2019-04-29T04:06:22.289Z,1491
2019-04-29T04:07:24.666Z,1481
2019-04-29T04:08:26.937Z,1454
2019-04-29T04:09:32.788Z,1470
2019-04-29T04:10:31.424Z,1478
2019-04-29T04:11:33.797Z,1473
2019-04-29T04:12:35.954Z,1457
2019-04-29T04:13:38.298Z,1476
2019-04-29T04:14:40.532Z,1445
2019-04-29T04:15:42.777Z,1459
2019-04-29T04:16:45.162Z,1482
2019-04-29T04:17:47.304Z,1465
2019-04-29T04:18:49.607Z,1459
2019-04-29T04:19:52.032Z,1436
2019-04-29T04:20:54.603Z,1448
2019-04-29T04:21:56.407Z,1441
2019-04-29T04:22:58.697Z,1450
2019-04-29T04:24:01.065Z,1450
2019-04-29T04:25:03.243Z,1885
2019-04-29T04:26:05.681Z,1460
2019-04-29T04:27:07.764Z,1481
2019-04-29T04:28:10.805Z,1450
2019-04-29T04:29:12.327Z,1463
2019-04-29T04:30:14.624Z,1466
2019-04-29T04:31:16.867Z,1462
2019-04-29T04:32:19.148Z,1470
2019-04-29T04:33:21.456Z,1481
2019-04-29T04:34:23.693Z,1479
2019-04-29T04:35:25.968Z,1488
2019-04-29T04:36:28.350Z,1473
2019-04-29T04:37:30.704Z,1480
2019-04-29T04:38:32.771Z,1471
2019-04-29T04:39:35.054Z,1498
2019-04-29T04:40:39.568Z,1489
2019-04-29T04:41:39.587Z,1491
2019-04-29T04:42:41.859Z,1492
2019-04-29T04:43:44.169Z,1516
2019-04-29T04:44:46.563Z,1516
2019-04-29T04:45:48.674Z,1498
2019-04-29T04:46:50.948Z,1496
2019-04-29T04:47:53.303Z,1498
2019-04-29T04:48:55.560Z,1500
2019-04-29T04:49:57.789Z,1495
2019-04-29T04:51:00.032Z,1484
2019-04-29T04:52:02.305Z,1493
2019-04-29T04:53:04.602Z,1483
2019-04-29T04:54:07.156Z,1637
2019-04-29T04:55:09.114Z,1529
2019-04-29T04:56:11.397Z,1513
2019-04-29T04:57:13.654Z,1514
2019-04-29T04:58:15.973Z,1517
2019-04-29T04:59:18.219Z,1495
2019-04-29T05:00:20.519Z,1494
2019-04-29T05:01:22.905Z,7392
2019-04-29T05:02:25.049Z,4003
2019-04-29T05:03:27.482Z,3300
2019-04-29T05:04:29.685Z,2673
2019-04-29T05:05:31.941Z,2572
2019-04-29T05:06:34.135Z,2749
2019-04-29T05:07:36.626Z,2111
2019-04-29T05:08:38.750Z,2452
2019-04-29T05:09:40.942Z,2100
2019-04-29T05:10:43.305Z,2514
2019-04-29T05:11:45.476Z,2185
2019-04-29T05:12:48.011Z,1632
2019-04-29T05:13:50.041Z,3735
2019-04-29T05:14:52.287Z,3097
2019-04-29T05:15:54.735Z,2505
2019-04-29T05:16:56.831Z,1538
2019-04-29T05:17:59.125Z,1550
2019-04-29T05:19:01.386Z,1759
2019-04-29T05:20:03.654Z,1971
2019-04-29T05:21:05.929Z,2026
2019-04-29T05:22:08.283Z,1548
2019-04-29T05:23:10.479Z,1715
2019-04-29T05:24:12.882Z,1548
2019-04-29T05:25:15.017Z,1535
2019-04-29T05:26:17.285Z,1525
2019-04-29T05:27:19.563Z,1470
2019-04-29T05:28:21.842Z,1501
2019-04-29T05:29:24.102Z,1496
2019-04-29T05:30:26.438Z,1495
2019-04-29T05:31:28.690Z,1482
2019-04-29T05:32:32.026Z,1480
2019-04-29T05:33:33.220Z,1514
2019-04-29T05:34:35.502Z,1466
2019-04-29T05:35:37.773Z,1474
2019-04-29T05:36:40.134Z,1472
2019-04-29T05:37:42.307Z,1473
2019-04-29T05:38:44.591Z,1473
2019-04-29T05:39:46.959Z,1432
2019-04-29T05:40:49.433Z,1454
2019-04-29T05:41:51.454Z,1480
2019-04-29T05:42:53.693Z,1418
2019-04-29T05:43:56.065Z,1442
2019-04-29T05:44:58.242Z,1462
2019-04-29T05:46:00.480Z,1451
2019-04-29T05:47:02.817Z,1452
2019-04-29T05:48:05.109Z,1462
2019-04-29T05:49:07.298Z,1437
2019-04-29T05:50:09.574Z,1471
2019-04-29T05:51:12.247Z,1474
2019-04-29T05:52:14.284Z,1465
2019-04-29T05:53:16.391Z,1443
2019-04-29T05:54:18.672Z,1429
2019-04-29T05:55:20.935Z,1461
2019-04-29T05:56:23.312Z,1471
2019-04-29T05:57:25.532Z,1525
2019-04-29T05:58:27.781Z,1459
2019-04-29T05:59:30.044Z,1467
2019-04-29T06:00:32.334Z,1437
2019-04-29T06:01:34.581Z,1417
2019-04-29T06:02:36.857Z,1513
2019-04-29T06:03:39.106Z,1445
2019-04-29T06:04:41.427Z,1503
2019-04-29T06:05:43.677Z,1466
2019-04-29T06:06:45.934Z,1408
2019-04-29T06:07:48.226Z,1418
2019-04-29T06:08:50.975Z,1403
2019-04-29T06:09:52.746Z,1397
2019-04-29T06:10:55.020Z,1420
2019-04-29T06:11:57.288Z,1394
2019-04-29T06:13:04.296Z,1382
2019-04-29T06:14:01.900Z,1377
2019-04-29T06:15:04.127Z,1368
2019-04-29T06:16:06.417Z,1362
2019-04-29T06:17:08.650Z,1363
2019-04-29T06:18:10.967Z,1386
2019-04-29T06:19:13.228Z,1351
2019-04-29T06:20:15.492Z,1370
2019-04-29T06:21:17.749Z,1362
2019-04-29T06:22:20.036Z,1366
2019-04-29T06:23:22.305Z,1397
2019-04-29T06:24:24.601Z,1379
2019-04-29T06:25:26.860Z,1365
2019-04-29T06:26:29.178Z,1372
2019-04-29T06:27:31.400Z,1360
2019-04-29T06:28:33.674Z,1369
2019-04-29T06:29:35.931Z,1404
2019-04-29T06:30:38.199Z,1409
2019-04-29T06:31:40.708Z,1419
2019-04-29T06:32:42.754Z,1403
2019-04-29T06:33:45.033Z,1393
2019-04-29T06:34:47.410Z,1361
2019-04-29T06:35:49.586Z,1331
2019-04-29T06:36:51.930Z,1323
2019-04-29T06:37:54.135Z,1327
2019-04-29T06:38:56.400Z,1312
2019-04-29T06:39:58.726Z,1303
2019-04-29T06:41:00.941Z,1301
2019-04-29T06:42:03.238Z,1315
2019-04-29T06:43:05.505Z,1314
2019-04-29T06:44:07.788Z,1331
2019-04-29T06:45:10.049Z,1351
2019-04-29T06:46:12.438Z,1334
2019-04-29T06:47:14.625Z,1322
2019-04-29T06:48:17.839Z,1352
2019-04-29T06:49:19.283Z,1326
2019-04-29T06:50:21.447Z,1333
2019-04-29T06:51:23.666Z,1329
2019-04-29T06:52:25.972Z,1320
2019-04-29T06:53:28.215Z,1294
2019-04-29T06:54:30.486Z,1299
2019-04-29T06:55:32.943Z,1523
2019-04-29T06:56:35.228Z,1406
2019-04-29T06:57:37.301Z,1363
2019-04-29T06:58:39.615Z,1321
2019-04-29T06:59:41.959Z,1318
2019-04-29T07:00:44.307Z,1338
2019-04-29T07:01:46.611Z,1320
2019-04-29T07:02:48.660Z,1318
2019-04-29T07:03:51.011Z,1313
2019-04-29T07:04:53.326Z,1299
2019-04-29T07:05:55.469Z,1309
2019-04-29T07:06:57.794Z,1359
2019-04-29T07:08:00.191Z,1338
2019-04-29T07:09:02.434Z,1328
2019-04-29T07:10:04.583Z,1315
2019-04-29T07:11:07.201Z,1304
2019-04-29T07:12:09.139Z,1308
2019-04-29T07:13:11.447Z,1323
2019-04-29T07:14:13.663Z,1310
2019-04-29T07:15:15.930Z,1298
2019-04-29T07:16:18.333Z,1294
2019-04-29T07:17:20.586Z,1287
2019-04-29T07:18:22.760Z,1300
2019-04-29T07:19:25.191Z,1281
2019-04-29T07:20:27.511Z,1278
2019-04-29T07:21:29.666Z,1266
2019-04-29T07:22:31.875Z,1306
2019-04-29T07:23:34.116Z,1308
2019-04-29T07:24:36.457Z,1311
2019-04-29T07:25:38.865Z,1308
2019-04-29T07:26:41.009Z,1289
2019-04-29T07:27:43.236Z,1316
2019-04-29T07:28:45.473Z,1303
2019-04-29T07:29:47.780Z,1294
2019-04-29T07:30:50.057Z,1298
2019-04-29T07:31:52.376Z,1296
2019-04-29T07:32:54.589Z,1304
2019-04-29T07:33:57.039Z,1294
2019-04-29T07:34:59.133Z,1297
2019-04-29T07:36:01.497Z,1294
2019-04-29T07:37:03.714Z,1301
2019-04-29T07:38:06.046Z,1300
2019-04-29T07:39:08.291Z,1295
2019-04-29T07:40:10.685Z,1301
2019-04-29T07:41:12.758Z,1307
2019-04-29T07:42:15.090Z,1300
2019-04-29T07:43:17.300Z,1326
2019-04-29T07:44:19.587Z,1315
2019-04-29T07:45:21.959Z,1301
2019-04-29T07:46:24.202Z,1312
2019-04-29T07:47:26.460Z,1320
2019-04-29T07:48:28.664Z,1291
2019-04-29T07:49:31.134Z,1325
2019-04-29T07:50:33.215Z,1308
2019-04-29T07:51:35.510Z,1323
2019-04-29T07:52:37.749Z,1331
2019-04-29T07:53:40.146Z,1329
2019-04-29T07:54:42.296Z,1318
2019-04-29T07:55:44.730Z,1315
2019-04-29T07:56:46.891Z,1313
2019-04-29T07:57:49.192Z,1298
2019-04-29T07:58:51.418Z,1300
2019-04-29T07:59:53.739Z,1295
2019-04-29T08:00:56.019Z,1295
2019-04-29T08:01:58.430Z,1307
2019-04-29T08:03:00.486Z,1297
2019-04-29T08:04:02.821Z,1298
2019-04-29T08:05:05.014Z,1299
2019-04-29T08:06:07.312Z,1308
2019-04-29T08:07:09.664Z,1320
2019-04-29T08:08:11.877Z,1310
2019-04-29T08:09:14.132Z,1308
2019-04-29T08:10:16.666Z,1305
2019-04-29T08:11:18.778Z,1323
2019-04-29T08:12:20.925Z,1304
2019-04-29T08:13:23.270Z,1317
2019-04-29T08:14:25.487Z,1313
2019-04-29T08:15:27.755Z,1295
2019-04-29T08:16:30.031Z,1311
2019-04-29T08:17:32.419Z,1292
2019-04-29T08:18:34.559Z,1295
2019-04-29T08:19:36.944Z,1287
2019-04-29T08:20:39.150Z,1299
2019-04-29T08:21:41.571Z,1295
2019-04-29T08:22:43.664Z,1304
2019-04-29T08:23:46.016Z,1296
2019-04-29T08:24:48.222Z,1302
2019-04-29T08:26:52.749Z,1314
2019-04-29T08:27:55.019Z,1326
2019-04-29T08:28:57.346Z,1316
2019-04-29T08:29:59.562Z,1326
2019-04-29T08:31:01.907Z,1308
2019-04-29T08:32:04.145Z,1299
2019-04-29T08:33:06.391Z,1315
2019-04-29T08:34:08.761Z,1317
2019-04-29T08:35:10.953Z,1320
2019-04-29T08:36:13.941Z,1314
2019-04-29T08:37:15.729Z,1310
2019-04-29T08:38:17.755Z,1301
2019-04-29T08:39:20.178Z,1297
2019-04-29T08:40:22.375Z,1306
2019-04-29T08:41:24.686Z,1285
2019-04-29T08:42:26.845Z,1307
2019-04-29T08:43:29.124Z,1309
2019-04-29T08:44:31.395Z,1311
2019-04-29T08:45:34.179Z,1309
2019-04-29T08:46:35.949Z,1309
2019-04-29T08:47:38.214Z,1322
2019-04-29T08:48:40.594Z,1328
2019-04-29T08:49:42.782Z,1324
2019-04-29T08:50:45.025Z,1313
2019-04-29T08:52:49.561Z,1306
2019-04-29T08:53:52.018Z,1317
2019-04-29T08:54:54.169Z,1320
2019-04-29T08:55:56.530Z,1327
2019-04-29T08:56:58.667Z,1331
2019-04-29T08:58:00.953Z,1329
2019-04-29T08:59:03.202Z,1321
2019-04-29T09:00:05.539Z,1331
2019-04-29T09:01:07.854Z,1345
2019-04-29T09:02:10.119Z,1343
2019-04-29T09:03:12.290Z,1340
2019-04-29T09:04:14.586Z,1337
2019-04-29T09:05:16.936Z,1348
2019-04-29T09:06:19.104Z,1340
2019-04-29T09:07:21.453Z,1324
2019-04-29T09:08:23.667Z,1336
2019-04-29T09:09:26.414Z,1338
2019-04-29T09:10:28.443Z,1333
2019-04-29T09:11:30.488Z,1361
2019-04-29T09:12:32.825Z,1340
2019-04-29T09:13:35.014Z,1338
2019-04-29T09:14:37.320Z,1372
2019-04-29T09:15:39.560Z,1525
2019-04-29T09:16:42.021Z,1462
2019-04-29T09:17:44.150Z,1395
2019-04-29T09:18:46.385Z,1364
2019-04-29T09:19:48.658Z,1352
2019-04-29T09:20:50.923Z,1352
2019-04-29T09:21:53.213Z,1341
2019-04-29T09:22:55.473Z,1336
2019-04-29T09:23:57.772Z,1339
2019-04-29T09:25:00.109Z,1328
2019-04-29T09:26:02.427Z,1326
2019-04-29T09:27:04.583Z,1327
2019-04-29T09:28:06.987Z,1322
2019-04-29T09:29:09.166Z,1321
2019-04-29T09:30:11.386Z,1315
2019-04-29T09:31:13.661Z,1335
2019-04-29T09:32:15.943Z,1321
2019-04-29T09:33:19.418Z,1330
2019-04-29T09:34:20.576Z,1334
2019-04-29T09:35:22.750Z,1338
2019-04-29T09:36:25.011Z,1343
2019-04-29T09:37:27.372Z,1336
2019-04-29T09:38:29.562Z,1342
2019-04-29T09:39:31.926Z,1333
2019-04-29T09:40:34.162Z,1338
2019-04-29T09:41:36.570Z,1333
2019-04-29T09:42:38.753Z,1326
2019-04-29T09:43:41.666Z,1331
2019-04-29T09:44:43.277Z,1327
2019-04-29T09:45:45.524Z,1333
2019-04-29T09:46:48.290Z,1313
2019-04-29T09:47:50.073Z,1329
2019-04-29T09:48:52.361Z,1319
2019-04-29T09:49:54.612Z,1326
2019-04-29T09:50:56.872Z,1320
2019-04-29T09:51:59.168Z,1328
2019-04-29T09:53:01.435Z,1335
2019-04-29T09:54:03.706Z,1323
2019-04-29T09:55:06.002Z,1334
2019-04-29T09:56:08.284Z,1331
2019-04-29T09:57:10.525Z,1322
2019-04-29T09:58:12.790Z,1333
2019-04-29T09:59:15.060Z,1331
2019-04-29T10:00:17.349Z,1330
2019-04-29T10:01:19.634Z,1315
2019-04-29T10:02:21.921Z,1316
2019-04-29T10:03:24.158Z,1322
2019-04-29T10:04:26.419Z,1322
2019-04-29T10:05:28.838Z,1327
2019-04-29T10:06:31.034Z,1332
2019-04-29T10:07:33.273Z,1324
2019-04-29T10:08:35.527Z,1327
2019-04-29T10:09:37.784Z,1313
2019-04-29T10:10:40.166Z,1323
2019-04-29T10:11:42.434Z,1320
2019-04-29T10:12:44.682Z,1332
2019-04-29T10:13:46.976Z,1338
2019-04-29T10:14:49.146Z,1337
2019-04-29T10:15:51.570Z,1325
2019-04-29T10:16:53.684Z,1333
2019-04-29T10:17:55.990Z,1322
2019-04-29T10:18:58.236Z,1333
2019-04-29T10:20:00.589Z,1320
2019-04-29T10:21:02.790Z,1328
2019-04-29T10:22:05.119Z,1332
2019-04-29T10:23:07.409Z,1345
2019-04-29T10:24:09.642Z,1340
2019-04-29T10:25:11.928Z,1336
2019-04-29T10:26:14.160Z,1330
2019-04-29T10:27:16.420Z,1347
2019-04-29T10:28:18.694Z,1347
2019-04-29T10:29:20.992Z,1354
2019-04-29T10:30:23.257Z,1365
2019-04-29T10:31:25.511Z,1368
2019-04-29T10:32:27.821Z,1360
2019-04-29T10:33:30.086Z,1356
2019-04-29T10:34:32.340Z,1362
2019-04-29T10:35:34.603Z,1358
2019-04-29T10:36:36.882Z,1358
2019-04-29T10:37:40.047Z,1382
2019-04-29T10:38:41.506Z,1377
2019-04-29T10:39:43.705Z,1368
2019-04-29T10:40:45.969Z,1411
2019-04-29T10:41:50.627Z,1425
2019-04-29T10:42:50.629Z,1432
2019-04-29T10:43:52.836Z,1411
2019-04-29T10:44:55.068Z,1381
2019-04-29T10:45:57.595Z,1362
2019-04-29T10:46:59.611Z,1371
2019-04-29T10:48:01.902Z,1372
2019-04-29T10:49:04.348Z,1362
2019-04-29T10:50:06.493Z,1346
2019-04-29T10:51:08.782Z,1352
2019-04-29T10:52:11.687Z,1360
2019-04-29T10:53:13.320Z,1352
2019-04-29T10:54:15.678Z,1355
2019-04-29T10:55:17.885Z,1350
2019-04-29T10:56:20.168Z,1361
2019-04-29T10:57:22.343Z,1349
2019-04-29T10:58:24.896Z,1354
2019-04-29T10:59:26.904Z,1358
2019-04-29T11:00:29.182Z,1361
2019-04-29T11:01:31.429Z,1352
2019-04-29T11:02:33.710Z,1366
2019-04-29T11:03:35.990Z,1357
2019-04-29T11:04:38.428Z,1377
2019-04-29T11:05:40.582Z,1375
2019-04-29T11:06:42.803Z,1372
2019-04-29T11:07:45.150Z,1358
2019-04-29T11:08:47.399Z,1363
2019-04-29T11:09:49.775Z,1370
2019-04-29T11:10:51.886Z,1353
2019-04-29T11:11:54.240Z,1357
2019-04-29T11:12:56.731Z,1367
2019-04-29T11:13:58.704Z,1358
2019-04-29T11:15:00.993Z,1359
2019-04-29T11:16:03.239Z,1347
2019-04-29T11:18:07.893Z,1349
2019-04-29T11:19:10.100Z,1347
2019-04-29T11:20:12.339Z,1365
2019-04-29T11:21:14.627Z,1355
2019-04-29T11:22:16.877Z,1347
2019-04-29T11:23:19.139Z,1352
2019-04-29T11:24:21.641Z,1357
2019-04-29T11:25:23.696Z,1343
2019-04-29T11:26:25.971Z,1342
2019-04-29T11:27:28.388Z,1357
2019-04-29T11:28:30.513Z,1340
2019-04-29T11:29:32.809Z,1356
2019-04-29T11:30:35.085Z,1343
2019-04-29T11:31:37.407Z,1351
2019-04-29T11:32:39.604Z,1358
2019-04-29T11:33:42.009Z,1354
2019-04-29T11:34:44.189Z,1349
2019-04-29T11:35:46.409Z,1346
2019-04-29T11:36:48.692Z,1345
2019-04-29T11:37:51.016Z,1350
2019-04-29T11:38:53.313Z,1363
2019-04-29T11:39:55.703Z,1356
2019-04-29T11:40:57.903Z,1352
2019-04-29T11:42:00.142Z,1366
2019-04-29T11:43:04.224Z,1357
2019-04-29T11:44:04.639Z,1356
2019-04-29T11:45:07.014Z,1365
2019-04-29T11:46:09.166Z,1391
2019-04-29T11:47:11.476Z,1402
2019-04-29T11:48:13.806Z,1386
2019-04-29T11:49:16.452Z,1363
2019-04-29T11:50:18.351Z,1377
2019-04-29T11:51:20.516Z,1358
2019-04-29T11:52:22.825Z,1364
2019-04-29T11:53:25.070Z,1364
2019-04-29T11:54:27.368Z,1352
2019-04-29T11:55:29.704Z,1358
2019-04-29T11:56:31.880Z,1367
2019-04-29T11:57:34.234Z,1360
2019-04-29T11:58:36.510Z,1377
2019-04-29T11:59:38.714Z,1368
2019-04-29T12:00:41.004Z,1366
2019-04-29T12:01:43.268Z,1381
2019-04-29T12:02:45.587Z,1364
2019-04-29T12:03:47.800Z,1386
2019-04-29T12:04:50.186Z,1369
2019-04-29T12:05:52.335Z,1381
2019-04-29T12:06:54.908Z,1374
2019-04-29T12:07:57.019Z,1370
2019-04-29T12:10:01.449Z,1358
2019-04-29T12:11:04.654Z,1358
2019-04-29T12:12:05.979Z,1360
2019-04-29T12:13:08.234Z,1354
2019-04-29T12:15:12.839Z,1365
2019-04-29T12:16:15.144Z,1361
2019-04-29T12:17:17.348Z,1365
2019-04-29T12:18:19.652Z,1366
2019-04-29T12:19:21.880Z,1381
2019-04-29T12:20:24.174Z,1385
2019-04-29T12:21:31.304Z,1380
2019-04-29T12:22:28.801Z,1356
2019-04-29T12:23:31.058Z,1361
2019-04-29T12:24:33.293Z,1370
2019-04-29T12:25:35.881Z,1369
2019-04-29T12:26:37.923Z,1360
2019-04-29T12:27:40.203Z,1363
2019-04-29T12:28:42.359Z,1374
2019-04-29T12:29:44.672Z,1375
2019-04-29T12:30:46.914Z,1389
2019-04-29T12:31:49.158Z,1382
2019-04-29T12:32:51.535Z,1378
2019-04-29T12:33:53.719Z,1372
2019-04-29T12:34:55.982Z,1356
2019-04-29T12:35:58.336Z,1347
2019-04-29T12:37:00.515Z,1356
2019-04-29T12:38:02.809Z,1362
2019-04-29T12:39:05.074Z,1354
2019-04-29T12:40:07.354Z,1349
2019-04-29T12:41:09.720Z,1368
2019-04-29T12:42:11.895Z,1365
2019-04-29T12:43:14.244Z,1363
2019-04-29T12:44:16.418Z,1377
2019-04-29T12:45:18.754Z,1378
2019-04-29T12:46:21.115Z,1372
2019-04-29T12:47:23.325Z,1365
2019-04-29T12:48:25.525Z,1358
2019-04-29T12:49:27.793Z,1372
2019-04-29T12:50:30.187Z,1374
2019-04-29T12:51:32.337Z,1369
2019-04-29T12:52:34.621Z,1372
2019-04-29T12:53:36.997Z,1370
2019-04-29T12:54:39.230Z,1365
2019-04-29T12:55:41.896Z,1359
2019-04-29T12:56:44.104Z,1356
2019-04-29T12:57:46.009Z,1361
2019-04-29T12:58:48.304Z,1368
2019-04-29T12:59:50.541Z,1372
2019-04-29T13:00:52.814Z,1362
2019-04-29T13:01:55.071Z,1366
2019-04-29T13:02:57.339Z,1373
2019-04-29T13:03:59.613Z,1413
2019-04-29T13:05:02.009Z,1411
2019-04-29T13:06:04.153Z,1381
2019-04-29T13:07:06.667Z,1384
2019-04-29T13:08:08.706Z,1380
2019-04-29T13:09:10.972Z,1361
2019-04-29T13:10:13.297Z,1385
2019-04-29T13:11:15.519Z,1365
2019-04-29T13:12:17.897Z,1377
2019-04-29T13:13:20.213Z,1364
2019-04-29T13:14:22.331Z,1379
2019-04-29T13:15:24.628Z,1370
2019-04-29T13:16:26.887Z,1381
2019-04-29T13:17:29.851Z,1370
2019-04-29T13:18:31.436Z,1381
2019-04-29T13:19:33.694Z,1380
2019-04-29T13:20:35.971Z,1374
2019-04-29T13:21:38.278Z,1374
2019-04-29T13:22:40.677Z,1406
2019-04-29T13:23:45.694Z,1395
2019-04-29T13:24:45.103Z,1375
2019-04-29T13:25:47.460Z,1377
2019-04-29T13:26:49.624Z,1358
2019-04-29T13:27:51.910Z,1357
2019-04-29T13:28:54.334Z,1368
2019-04-29T13:29:56.429Z,1362
2019-04-29T13:30:58.704Z,1362
2019-04-29T13:32:01.039Z,1355
2019-04-29T13:33:03.273Z,1365
2019-04-29T13:34:05.636Z,1371
2019-04-29T13:35:07.826Z,1374
2019-04-29T13:36:10.101Z,1364
2019-04-29T13:37:12.362Z,1368
2019-04-29T13:38:14.648Z,1372
2019-04-29T13:39:16.884Z,1374
2019-04-29T13:40:19.240Z,1360
2019-04-29T13:41:21.491Z,1368
2019-04-29T13:42:23.834Z,1355
2019-04-29T13:43:26.090Z,1370
2019-04-29T13:44:28.277Z,1375
2019-04-29T13:45:30.736Z,1370
2019-04-29T13:46:32.899Z,1360
2019-04-29T13:47:35.096Z,1363
2019-04-29T13:48:37.447Z,1348
2019-04-29T13:49:39.815Z,1349
2019-04-29T13:50:41.939Z,1352
2019-04-29T13:51:44.285Z,1353
2019-04-29T13:52:46.597Z,1356
2019-04-29T13:53:48.779Z,1355
2019-04-29T13:54:50.986Z,1347
2019-04-29T13:55:57.702Z,1355
2019-04-29T13:56:55.598Z,1370